Greenwood, Virginia
Current Conditions -  °F | °C
As of 10:15 PM on Monday 26 Jan 2015 (Local Time) from KW13 Reporting Station
Overcast Overcast  
Wind Chill: -6°   Ceiling: 500
Heat Index: -2°   Visibility: 2.5mi
Dew Point: -2°   Wind: 9mph
Humidity: 97%   Direction: 340°NNW
Pressure: 29.71"   Gusts: NA
Location:  38.05°N, 78.77°W
Report Text: KW13 270315Z AUTO 34008KT 2 1/2SM OVC005 M02/M02 A2971 RMK AO1 T10161020
Loading
Personal Weather Stations






























Interactive Weather Map New forecast layout! Learn more

10-Day Weather Forecast

Advertisements
Track Severe Weather on mobile